Time;durP1;ratioP1;P1;durP2;ratioP2;P2;SDS_P1;SDS_P2;PMS_P1;PMS_P2;Temp;Humidity;BMP_temperature;BMP_pressure;BME280_temperature;BME280_humidity;BME280_pressure;Samples;Min_cycle;Max_cycle;Signal;HPM_P1;HPM_P2
2022/09/18 00:02:01;;;;;;;;;;;;;;;10.98;100.00;-25374.81;5088112;28;20384;-74
2022/09/18 00:04:28;;;;;;;;;;;;;;;10.96;99.05;-25374.38;5055011;28;19970;-74
2022/09/18 00:06:53;;;;;;;;;;;;;;;11.01;97.90;-25375.69;5088771;28;19939;-80
2022/09/18 00:09:19;;;;;;;;;;;;;;;10.98;95.75;-25374.97;5056602;28;19917;-81
2022/09/18 00:11:45;;;;;;;;;;;;;;;10.96;94.24;-25374.38;5073352;28;19920;-81
2022/09/18 00:14:12;;;;;;;;;;;;;;;10.90;93.49;-25372.75;5056219;28;20352;-75
2022/09/18 00:16:38;;;;;;;;;;;;;;;10.96;95.51;-25374.38;5054929;28;19920;-75
2022/09/18 00:19:04;;;;;;;;;;;;;;;10.98;93.53;-25374.97;5068542;28;20377;-77
2022/09/18 00:21:30;;;;;;;;;;;;;;;11.02;99.57;-25376.13;5055716;28;19924;-76
2022/09/18 00:23:57;;;;;;;;;;;;;;;11.04;100.00;-25376.72;5054694;28;19923;-77
2022/09/18 00:26:24;;;;;;;;;;;;;;;11.06;100.00;-25377.31;5054481;28;19923;-73
2022/09/18 00:28:50;;;;;;;;;;;;;;;11.05;100.00;-25377.00;5087895;28;20356;-76
2022/09/18 00:31:17;;;;;;;;;;;;;;;11.02;100.00;-25376.13;5067726;28;19923;-73
2022/09/18 00:33:44;;;;;;;;;;;;;;;11.01;100.00;-25375.84;5057456;28;19981;-73
2022/09/18 00:36:12;;;;;;;;;;;;;;;11.08;100.00;-25377.75;5054455;28;19921;-77
2022/09/18 00:38:37;;;;;;;;;;;;;;;11.09;100.00;-25378.19;5059797;28;19924;-74
2022/09/18 00:41:04;;;;;;;;;;;;;;;11.00;100.00;-25375.56;5066212;28;20019;-75
2022/09/18 00:43:31;;;;;;;;;;;;;;;10.98;100.00;-25374.81;5065812;28;19920;-74
2022/09/18 00:46:00;;;;;;;;;;;;;;;10.96;100.00;-25374.53;5057298;28;20280;-74
2022/09/18 00:48:29;;;;;;;;;;;;;;;10.98;100.00;-25374.97;5062117;28;19924;-74
2022/09/18 00:50:55;;;;;;;;;;;;;;;11.00;100.00;-25375.56;5062630;28;19920;-74
2022/09/18 00:53:21;;;;;;;;;;;;;;;11.01;100.00;-25375.69;5052286;28;19939;-74
2022/09/18 00:55:47;;;;;;;;;;;;;;;11.00;100.00;-25375.56;5062318;28;19924;-73
2022/09/18 00:58:12;;;;;;;;;;;;;;;11.05;100.00;-25377.00;5059669;28;19959;-73
2022/09/18 01:00:38;;;;;;;;;;;;;;;11.09;100.00;-25378.19;5054947;28;20360;-74
2022/09/18 01:03:04;;;;;;;;;;;;;;;11.13;100.00;-25379.34;5064655;28;19920;-77
2022/09/18 01:05:48;;;;;;;;;;;;;;;11.06;100.00;-25377.31;5075188;28;19923;-78
2022/09/18 01:08:14;;;;;;;;;;;;;;;11.01;100.00;-25375.84;5054970;28;19944;-82
2022/09/18 01:10:39;;;;;;;;;;;;;;;10.92;100.00;-25373.19;5054488;28;19921;-76
2022/09/18 01:13:29;;;;;;;;;;;;;;;10.90;100.00;-25372.63;5059022;28;19924;-75
2022/09/18 01:15:57;;;;;;;;;;;;;;;10.80;100.00;-25369.69;5021381;28;19921;-76
2022/09/18 01:18:38;;;;;;;;;;;;;;;10.80;100.00;-25369.69;5051101;28;19920;-75
2022/09/18 01:21:07;;;;;;;;;;;;;;;10.72;100.00;-25367.63;5044483;28;19921;-74
2022/09/18 01:23:48;;;;;;;;;;;;;;;10.73;100.00;-25367.78;5044904;28;20584;-77
2022/09/18 01:26:13;;;;;;;;;;;;;;;10.70;100.00;-25367.03;5065116;28;19982;-75
2022/09/18 01:28:43;;;;;;;;;;;;;;;10.74;100.00;-25368.06;5052728;28;20324;-76
2022/09/18 01:31:15;;;;;;;;;;;;;;;10.68;100.00;-25366.47;5055999;28;19921;-75
2022/09/18 01:33:41;;;;;;;;;;;;;;;10.68;100.00;-25366.47;5052790;28;19924;-75
2022/09/18 01:36:08;;;;;;;;;;;;;;;10.63;100.00;-25364.84;5058956;28;19963;-76
2022/09/18 01:38:37;;;;;;;;;;;;;;;10.62;100.00;-25364.69;5059590;28;19921;-75
2022/09/18 01:41:11;;;;;;;;;;;;;;;10.64;100.00;-25365.28;5063851;28;19955;-76
2022/09/18 01:43:38;;;;;;;;;;;;;;;10.65;100.00;-25365.56;5055903;28;19920;-75
2022/09/18 01:46:07;;;;;;;;;;;;;;;10.64;100.00;-25365.13;5062945;28;19958;-76
2022/09/18 01:48:35;;;;;;;;;;;;;;;10.66;100.00;-25365.72;5073685;28;20269;-75
2022/09/18 01:51:05;;;;;;;;;;;;;;;10.63;100.00;-25365.00;5066425;28;19955;-82
2022/09/18 01:53:35;;;;;;;;;;;;;;;10.66;100.00;-25365.72;5057792;28;19921;-83
2022/09/18 01:56:20;;;;;;;;;;;;;;;10.69;100.00;-25366.75;5048933;28;19920;-81
2022/09/18 01:58:47;;;;;;;;;;;;;;;10.73;100.00;-25367.78;5064316;28;19955;-84
2022/09/18 02:01:14;;;;;;;;;;;;;;;10.76;100.00;-25368.66;5077983;28;20282;-84
2022/09/18 02:03:47;;;;;;;;;;;;;;;10.80;100.00;-25369.84;5082159;28;19951;-84
2022/09/18 02:06:16;;;;;;;;;;;;;;;10.78;100.00;-25369.25;5083034;28;20023;-84
2022/09/18 02:09:01;;;;;;;;;;;;;;;10.82;100.00;-25370.28;5069017;28;19964;-84
2022/09/18 02:11:26;;;;;;;;;;;;;;;10.86;100.00;-25371.44;5062411;28;20023;-83
2022/09/18 02:14:05;;;;;;;;;;;;;;;10.89;100.00;-25372.47;5060481;28;19947;-83
2022/09/18 02:16:32;;;;;;;;;;;;;;;10.90;100.00;-25372.63;5059676;28;20391;-83
2022/09/18 02:19:02;;;;;;;;;;;;;;;10.86;100.00;-25371.59;5058793;28;19927;-82
2022/09/18 02:21:29;;;;;;;;;;;;;;;10.85;100.00;-25371.16;5058465;28;19928;-84
2022/09/18 02:24:05;;;;;;;;;;;;;;;10.81;100.00;-25369.97;5065692;28;19917;-81
2022/09/18 02:26:32;;;;;;;;;;;;;;;10.79;100.00;-25369.53;5078111;28;19920;-82
2022/09/18 02:28:58;;;;;;;;;;;;;;;10.83;100.00;-25370.56;5055074;28;20359;-81
2022/09/18 02:31:23;;;;;;;;;;;;;;;10.82;100.00;-25370.41;5060273;28;19973;-83
2022/09/18 02:33:49;;;;;;;;;;;;;;;10.78;100.00;-25369.38;5055253;28;19924;-82
2022/09/18 02:36:33;;;;;;;;;;;;;;;10.74;100.00;-25368.22;5054995;28;19927;-76
2022/09/18 02:39:17;;;;;;;;;;;;;;;10.74;100.00;-25368.22;5049296;28;19921;-74
2022/09/18 02:41:57;;;;;;;;;;;;;;;10.78;100.00;-25369.38;5073493;28;20073;-74
2022/09/18 02:44:26;;;;;;;;;;;;;;;10.82;100.00;-25370.28;5051369;28;19920;-75
2022/09/18 02:47:13;;;;;;;;;;;;;;;10.83;100.00;-25370.72;5054852;28;19969;-76
2022/09/18 02:50:07;;;;;;;;;;;;;;;10.80;100.00;-25369.84;5050511;28;20266;-75
2022/09/18 02:52:40;;;;;;;;;;;;;;;10.80;100.00;-25369.84;5053854;28;19920;-77
2022/09/18 02:55:06;;;;;;;;;;;;;;;10.81;100.00;-25370.13;5052448;28;19928;-75
2022/09/18 02:57:34;;;;;;;;;;;;;;;10.82;100.00;-25370.28;5054736;28;20296;-75
2022/09/18 03:00:00;;;;;;;;;;;;;;;10.85;100.00;-25371.16;5075979;28;19975;-75
2022/09/18 03:02:27;;;;;;;;;;;;;;;10.86;100.00;-25371.44;5050692;28;20253;-76
2022/09/18 03:04:52;;;;;;;;;;;;;;;10.86;100.00;-25371.44;5054781;28;20386;-75
2022/09/18 03:07:17;;;;;;;;;;;;;;;10.90;100.00;-25372.75;5066167;28;19921;-76
2022/09/18 03:09:43;;;;;;;;;;;;;;;10.90;100.00;-25372.75;5055813;28;19943;-74
2022/09/18 03:12:08;;;;;;;;;;;;;;;10.94;100.00;-25373.78;5070565;28;19990;-75
2022/09/18 03:14:34;;;;;;;;;;;;;;;10.95;100.00;-25374.09;5065026;28;19916;-75
2022/09/18 03:16:59;;;;;;;;;;;;;;;10.94;100.00;-25373.94;5082844;28;19921;-75
2022/09/18 03:19:24;;;;;;;;;;;;;;;10.93;100.00;-25373.50;5047735;28;19964;-76
2022/09/18 03:21:51;;;;;;;;;;;;;;;10.96;100.00;-25374.38;5069661;28;19916;-78
2022/09/18 03:24:16;;;;;;;;;;;;;;;10.97;100.00;-25374.66;5063839;28;19981;-75
2022/09/18 03:26:41;;;;;;;;;;;;;;;11.03;100.00;-25376.44;5057788;28;19917;-76
2022/09/18 03:29:10;;;;;;;;;;;;;;;11.03;100.00;-25376.28;5058960;28;19920;-80
2022/09/18 03:31:35;;;;;;;;;;;;;;;11.11;100.00;-25378.78;5062981;28;19966;-78
2022/09/18 03:34:01;;;;;;;;;;;;;;;11.07;100.00;-25377.44;5076649;28;20154;-83
2022/09/18 03:36:26;;;;;;;;;;;;;;;11.08;100.00;-25377.75;5057805;28;19975;-83
2022/09/18 03:38:51;;;;;;;;;;;;;;;11.09;100.00;-25378.19;5058914;28;20325;-79
2022/09/18 03:41:17;;;;;;;;;;;;;;;11.06;100.00;-25377.31;5058997;28;19931;-82
2022/09/18 03:43:42;;;;;;;;;;;;;;;11.11;100.00;-25378.78;5057193;28;20396;-85
2022/09/18 03:46:07;;;;;;;;;;;;;;;11.12;100.00;-25378.91;5089777;28;20315;-86
2022/09/18 03:48:32;;;;;;;;;;;;;;;11.09;100.00;-25378.03;5055683;28;20003;-84
2022/09/18 03:50:58;;;;;;;;;;;;;;;11.09;100.00;-25378.19;5090233;28;19912;-85
2022/09/18 03:53:26;;;;;;;;;;;;;;;11.08;100.00;-25377.91;5055668;28;19947;-85
2022/09/18 03:55:51;;;;;;;;;;;;;;;11.07;100.00;-25377.44;5059895;28;19923;-83
2022/09/18 03:58:17;;;;;;;;;;;;;;;11.09;100.00;-25378.19;5056412;28;20003;-83
2022/09/18 04:00:42;;;;;;;;;;;;;;;11.18;100.00;-25380.69;5056414;28;19920;-83
2022/09/18 04:03:09;;;;;;;;;;;;;;;11.18;100.00;-25380.69;5055081;28;19916;-81
2022/09/18 04:05:34;;;;;;;;;;;;;;;11.16;100.00;-25380.09;5058359;28;19935;-81
2022/09/18 04:08:04;;;;;;;;;;;;;;;11.08;100.00;-25377.91;5056056;28;19920;-83
2022/09/18 04:10:29;;;;;;;;;;;;;;;11.02;100.00;-25376.00;5055556;28;19924;-81
2022/09/18 04:12:57;;;;;;;;;;;;;;;10.98;100.00;-25374.97;5056446;28;19921;-81
2022/09/18 04:15:22;;;;;;;;;;;;;;;10.93;100.00;-25373.50;5058593;28;20061;-80
2022/09/18 04:17:47;;;;;;;;;;;;;;;10.92;100.00;-25373.19;5067705;28;19962;-81
2022/09/18 04:20:13;;;;;;;;;;;;;;;10.88;100.00;-25372.19;5060424;28;19928;-82
2022/09/18 04:22:38;;;;;;;;;;;;;;;10.93;100.00;-25373.63;5056557;28;20027;-83
2022/09/18 04:25:03;;;;;;;;;;;;;;;10.93;100.00;-25373.50;5056774;28;19956;-78
2022/09/18 04:27:29;;;;;;;;;;;;;;;10.91;100.00;-25372.91;5075407;28;20427;-78
2022/09/18 04:29:54;;;;;;;;;;;;;;;10.88;100.00;-25372.19;5074270;28;20366;-75
2022/09/18 04:32:30;;;;;;;;;;;;;;;10.84;100.00;-25371.00;5066253;27;2175705;-83
2022/09/18 04:34:56;;;;;;;;;;;;;;;10.85;100.00;-25371.28;5132363;27;19919;-83
2022/09/18 04:37:21;;;;;;;;;;;;;;;10.90;100.00;-25372.63;5131098;27;19919;-84
2022/09/18 04:39:46;;;;;;;;;;;;;;;10.91;100.00;-25373.06;5136203;27;19968;-84
2022/09/18 04:42:12;;;;;;;;;;;;;;;10.91;100.00;-25372.91;5121671;28;20044;-80
2022/09/18 04:44:37;;;;;;;;;;;;;;;10.86;100.00;-25371.59;5123950;27;19920;-84
2022/09/18 04:47:02;;;;;;;;;;;;;;;10.90;100.00;-25372.63;5131998;27;20007;-84
2022/09/18 04:49:27;;;;;;;;;;;;;;;10.88;100.00;-25372.03;5134214;27;19926;-81
2022/09/18 04:51:53;;;;;;;;;;;;;;;10.93;100.00;-25373.63;5126901;27;19926;-85
2022/09/18 04:54:18;;;;;;;;;;;;;;;10.96;100.00;-25374.38;5130855;27;19926;-74
2022/09/18 04:56:43;;;;;;;;;;;;;;;10.98;100.00;-25374.81;5129658;27;19923;-76
2022/09/18 04:59:08;;;;;;;;;;;;;;;11.03;100.00;-25376.44;5119980;28;19920;-75
2022/09/18 05:01:34;;;;;;;;;;;;;;;11.03;100.00;-25376.28;5121259;28;20014;-74
2022/09/18 05:04:00;;;;;;;;;;;;;;;10.99;100.00;-25375.25;5111337;27;19916;-75
2022/09/18 05:06:26;;;;;;;;;;;;;;;10.96;100.00;-25374.38;5131536;27;19919;-76
2022/09/18 05:08:51;;;;;;;;;;;;;;;10.91;100.00;-25373.06;5127418;27;19950;-75
2022/09/18 05:11:16;;;;;;;;;;;;;;;10.88;100.00;-25372.19;5111430;28;19919;-76
2022/09/18 05:13:42;;;;;;;;;;;;;;;10.86;100.00;-25371.44;5110991;28;20292;-75
2022/09/18 05:16:07;;;;;;;;;;;;;;;10.82;100.00;-25370.41;5122495;27;19919;-75
2022/09/18 05:18:33;;;;;;;;;;;;;;;10.84;100.00;-25370.84;5131170;27;20003;-75
2022/09/18 05:21:02;;;;;;;;;;;;;;;10.80;100.00;-25369.69;5117906;28;20363;-74
2022/09/18 05:23:27;;;;;;;;;;;;;;;10.80;100.00;-25369.69;5120215;28;19920;-75
2022/09/18 05:25:52;;;;;;;;;;;;;;;10.78;100.00;-25369.38;5130963;27;19923;-84
2022/09/18 05:28:18;;;;;;;;;;;;;;;10.84;100.00;-25371.00;5110845;27;19922;-73
2022/09/18 05:30:43;;;;;;;;;;;;;;;10.89;100.00;-25372.47;5110593;28;20381;-76
2022/09/18 05:33:10;;;;;;;;;;;;;;;10.95;100.00;-25374.09;5123662;27;20010;-82
2022/09/18 05:35:36;;;;;;;;;;;;;;;11.05;100.00;-25377.00;5136327;27;20410;-80
2022/09/18 05:38:02;;;;;;;;;;;;;;;11.05;100.00;-25376.88;5130186;27;19923;-84
2022/09/18 05:40:30;;;;;;;;;;;;;;;11.15;100.00;-25379.78;5123101;27;20055;-85
2022/09/18 05:42:57;;;;;;;;;;;;;;;11.24;100.00;-25382.28;5124519;27;19919;-82
2022/09/18 05:45:23;;;;;;;;;;;;;;;11.28;100.00;-25383.47;5116102;27;20252;-80
2022/09/18 05:47:58;;;;;;;;;;;;;;;11.28;100.00;-25383.59;5113395;27;19923;-81
2022/09/18 05:50:24;;;;;;;;;;;;;;;11.30;100.00;-25384.06;5116759;27;19919;-85
2022/09/18 05:52:56;;;;;;;;;;;;;;;11.29;100.00;-25383.75;5116443;27;19963;-81
2022/09/18 05:55:21;;;;;;;;;;;;;;;11.31;100.00;-25384.50;5100776;27;19919;-82
2022/09/18 05:57:50;;;;;;;;;;;;;;;11.32;100.00;-25384.78;5118495;27;19918;-85
2022/09/18 06:00:15;;;;;;;;;;;;;;;11.32;100.00;-25384.78;5117373;27;19985;-86
2022/09/18 06:02:40;;;;;;;;;;;;;;;11.38;100.00;-25386.25;5111129;28;20571;-85
2022/09/18 06:05:06;;;;;;;;;;;;;;;11.44;100.00;-25388.16;5109677;27;19938;-79
2022/09/18 06:07:31;;;;;;;;;;;;;;;11.47;100.00;-25389.03;5117279;27;19915;-78
2022/09/18 06:09:58;;;;;;;;;;;;;;;11.50;100.00;-25389.75;5097747;28;19911;-86
2022/09/18 06:12:29;;;;;;;;;;;;;;;11.45;100.00;-25388.44;5097659;28;19998;-86
2022/09/18 06:14:54;;;;;;;;;;;;;;;11.44;100.00;-25388.00;5097724;28;19915;-83
2022/09/18 06:17:20;;;;;;;;;;;;;;;11.41;100.00;-25387.13;5107123;28;19920;-81
2022/09/18 06:19:45;;;;;;;;;;;;;;;11.40;100.00;-25386.84;5099264;27;19923;-81
2022/09/18 06:22:11;;;;;;;;;;;;;;;11.34;100.00;-25385.22;5117742;27;19915;-80
2022/09/18 06:24:36;;;;;;;;;;;;;;;11.29;100.00;-25383.75;5106611;27;19984;-82
2022/09/18 06:27:02;;;;;;;;;;;;;;;11.27;100.00;-25383.16;5104765;27;20359;-74
2022/09/18 06:29:27;;;;;;;;;;;;;;;11.25;100.00;-25382.59;5107839;27;19927;-79
2022/09/18 06:31:52;;;;;;;;;;;;;;;11.26;100.00;-25382.88;5113530;28;19920;-82
2022/09/18 06:34:19;;;;;;;;;;;;;;;11.32;100.00;-25384.63;5114208;28;19970;-81
2022/09/18 06:36:44;;;;;;;;;;;;;;;11.32;100.00;-25384.63;5114361;28;19915;-82
2022/09/18 06:39:09;;;;;;;;;;;;;;;11.38;100.00;-25386.38;5099614;28;19972;-81
2022/09/18 06:41:38;;;;;;;;;;;;;;;11.48;100.00;-25389.16;5111787;28;19974;-83
2022/09/18 06:44:04;;;;;;;;;;;;;;;11.56;100.00;-25391.38;5112703;28;19965;-82
2022/09/18 06:46:29;;;;;;;;;;;;;;;11.72;100.00;-25395.91;5105732;28;19916;-80
2022/09/18 06:48:55;;;;;;;;;;;;;;;11.81;100.00;-25398.53;5093137;28;19924;-82
2022/09/18 06:51:20;;;;;;;;;;;;;;;11.86;100.00;-25400.00;5108320;28;19968;-80
2022/09/18 06:53:46;;;;;;;;;;;;;;;11.78;100.00;-25397.81;5111884;28;19923;-83
2022/09/18 06:56:11;;;;;;;;;;;;;;;11.84;100.00;-25399.56;5103130;28;19916;-82
2022/09/18 06:58:37;;;;;;;;;;;;;;;11.83;100.00;-25399.13;5093904;28;19922;-80
2022/09/18 07:01:02;;;;;;;;;;;;;;;11.80;100.00;-25398.25;5100749;28;19958;-84
2022/09/18 07:03:29;;;;;;;;;;;;;;;11.88;100.00;-25400.44;5099697;28;20317;-84
2022/09/18 07:05:54;;;;;;;;;;;;;;;11.96;100.00;-25402.78;5114377;28;19912;-84
2022/09/18 07:08:20;;;;;;;;;;;;;;;12.05;100.00;-25405.28;5107717;28;19920;-85
2022/09/18 07:10:45;;;;;;;;;;;;;;;12.18;100.00;-25409.09;5102070;28;19947;-83
2022/09/18 07:13:10;;;;;;;;;;;;;;;12.21;100.00;-25409.97;5113432;28;19927;-84
2022/09/18 07:15:36;;;;;;;;;;;;;;;12.25;100.00;-25411.13;5111511;28;20341;-80
2022/09/18 07:18:02;;;;;;;;;;;;;;;12.37;100.00;-25414.50;5110821;28;19919;-76
2022/09/18 07:20:31;;;;;;;;;;;;;;;12.47;100.00;-25417.28;5103359;28;19920;-78
2022/09/18 07:22:57;;;;;;;;;;;;;;;12.51;100.00;-25418.44;5093626;28;19954;-79
2022/09/18 07:25:24;;;;;;;;;;;;;;;12.57;100.00;-25420.34;5091964;28;19920;-81
2022/09/18 07:27:49;;;;;;;;;;;;;;;12.57;100.00;-25420.34;5094936;28;19956;-80
2022/09/18 07:30:15;;;;;;;;;;;;;;;12.69;100.00;-25423.56;5104179;28;19947;-80
2022/09/18 07:32:41;;;;;;;;;;;;;;;12.74;100.00;-25425.03;5092330;28;19927;-80
2022/09/18 07:35:06;;;;;;;;;;;;;;;12.70;100.00;-25423.84;5109170;28;19920;-78
2022/09/18 07:37:32;;;;;;;;;;;;;;;12.65;100.00;-25422.53;5111903;28;19924;-78
2022/09/18 07:39:58;;;;;;;;;;;;;;;12.55;100.00;-25419.75;5111696;28;20348;-78
2022/09/18 07:42:25;;;;;;;;;;;;;;;12.39;100.00;-25415.22;5111022;28;19969;-78
2022/09/18 07:44:50;;;;;;;;;;;;;;;12.38;100.00;-25414.78;5112307;28;19938;-78
2022/09/18 07:47:16;;;;;;;;;;;;;;;12.27;100.00;-25411.72;5108420;28;19927;-78
2022/09/18 07:49:41;;;;;;;;;;;;;;;12.20;100.00;-25409.66;5097059;28;19984;-80
2022/09/18 07:52:06;;;;;;;;;;;;;;;12.13;100.00;-25407.78;5101137;28;19927;-81
2022/09/18 07:54:32;;;;;;;;;;;;;;;12.11;100.00;-25407.19;5111412;28;19920;-80
2022/09/18 07:56:57;;;;;;;;;;;;;;;12.16;100.00;-25408.50;5093541;28;19924;-84
2022/09/18 07:59:22;;;;;;;;;;;;;;;12.20;100.00;-25409.81;5108065;28;19928;-83
2022/09/18 08:01:48;;;;;;;;;;;;;;;12.13;100.00;-25407.78;5102208;28;19916;-81
2022/09/18 08:04:15;;;;;;;;;;;;;;;12.06;100.00;-25405.72;5092195;28;20268;-87
2022/09/18 08:06:40;;;;;;;;;;;;;;;11.76;100.00;-25397.22;5106169;28;19923;-79
2022/09/18 08:09:05;;;;;;;;;;;;;;;11.60;100.00;-25392.53;5110711;28;19919;-82
2022/09/18 08:11:31;;;;;;;;;;;;;;;11.47;100.00;-25389.03;5092045;28;20634;-81
2022/09/18 08:14:00;;;;;;;;;;;;;;;11.40;100.00;-25386.97;5093045;28;19920;-84
2022/09/18 08:16:25;;;;;;;;;;;;;;;11.38;100.00;-25386.25;5106570;28;19963;-83
2022/09/18 08:18:51;;;;;;;;;;;;;;;11.46;100.00;-25388.59;5092259;28;19920;-80
2022/09/18 08:21:17;;;;;;;;;;;;;;;11.46;100.00;-25388.72;5093002;28;19920;-78
2022/09/18 08:23:42;;;;;;;;;;;;;;;11.51;100.00;-25390.06;5110177;28;19924;-75
2022/09/18 08:26:08;;;;;;;;;;;;;;;11.53;100.00;-25390.63;5104985;28;19969;-84
2022/09/18 08:28:34;;;;;;;;;;;;;;;11.53;100.00;-25390.63;5100268;28;19920;-79
2022/09/18 08:30:59;;;;;;;;;;;;;;;11.58;100.00;-25392.09;5113045;28;19915;-79
2022/09/18 08:33:24;;;;;;;;;;;;;;;11.70;100.00;-25395.47;5113678;28;20012;-81
2022/09/18 08:35:50;;;;;;;;;;;;;;;11.79;100.00;-25398.09;5115009;28;19916;-82
2022/09/18 08:38:15;;;;;;;;;;;;;;;11.99;100.00;-25403.66;5113863;28;19923;-80
2022/09/18 08:40:40;;;;;;;;;;;;;;;12.09;100.00;-25406.59;5096708;28;19927;-76
2022/09/18 08:43:24;;;;;;;;;;;;;;;12.10;100.00;-25406.88;5101443;28;19925;-78
2022/09/18 08:46:02;;;;;;;;;;;;;;;12.21;100.00;-25410.13;5115049;28;19957;-80
2022/09/18 08:48:30;;;;;;;;;;;;;;;12.44;100.00;-25416.53;5112440;28;19965;-77
2022/09/18 08:50:59;;;;;;;;;;;;;;;12.47;100.00;-25417.41;5113220;28;19919;-81
2022/09/18 08:53:39;;;;;;;;;;;;;;;12.62;100.00;-25421.66;5107093;28;20115;-78
2022/09/18 08:56:07;;;;;;;;;;;;;;;12.71;100.00;-25424.16;5109935;28;19968;-77
2022/09/18 08:58:36;;;;;;;;;;;;;;;12.88;100.00;-25429.13;5094980;28;20375;-82
2022/09/18 09:01:11;;;;;;;;;;;;;;;12.86;100.00;-25428.53;5107208;28;20048;-75
2022/09/18 09:03:58;;;;;;;;;;;;;;;12.97;100.00;-25431.59;5114659;28;19923;-83
2022/09/18 09:06:32;;;;;;;;;;;;;;;13.10;100.00;-25435.25;5115066;28;19915;-79
2022/09/18 09:09:09;;;;;;;;;;;;;;;13.19;100.00;-25437.72;5115081;28;19923;-75
2022/09/18 09:11:37;;;;;;;;;;;;;;;13.17;100.00;-25437.28;5114151;28;19919;-74
2022/09/18 09:14:21;;;;;;;;;;;;;;;13.34;100.00;-25442.13;5114291;28;19920;-85
2022/09/18 09:16:50;;;;;;;;;;;;;;;13.39;100.00;-25443.44;5115039;28;19915;-77
2022/09/18 09:19:21;;;;;;;;;;;;;;;13.54;100.00;-25447.81;5112702;28;19942;-80
2022/09/18 09:22:06;;;;;;;;;;;;;;;13.58;100.00;-25448.97;5099346;28;20014;-79
2022/09/18 09:24:41;;;;;;;;;;;;;;;13.56;100.00;-25448.38;5098603;28;19919;-82
2022/09/18 09:27:25;;;;;;;;;;;;;;;13.52;100.00;-25447.22;5117514;27;19920;-80
2022/09/18 09:29:55;;;;;;;;;;;;;;;13.48;100.00;-25445.91;5120009;27;19976;-84
2022/09/18 09:32:27;;;;;;;;;;;;;;;13.62;100.00;-25450.00;5119159;27;19920;-83
2022/09/18 09:35:12;;;;;;;;;;;;;;;13.44;100.00;-25444.91;5119377;27;19930;-83
2022/09/18 09:37:41;;;;;;;;;;;;;;;13.50;100.00;-25446.50;5113738;28;19916;-85
2022/09/18 09:40:13;;;;;;;;;;;;;;;13.41;100.00;-25444.16;5096612;28;19924;-81
2022/09/18 09:42:55;;;;;;;;;;;;;;;13.08;100.00;-25434.66;5104146;27;19938;-75
2022/09/18 09:45:28;;;;;;;;;;;;;;;12.87;100.00;-25428.81;5104219;28;19916;-74
2022/09/18 09:47:53;;;;;;;;;;;;;;;12.67;100.00;-25423.13;5110238;27;19919;-75
2022/09/18 09:50:18;;;;;;;;;;;;;;;12.56;100.00;-25420.06;5116861;27;19994;-74
2022/09/18 09:52:47;;;;;;;;;;;;;;;12.25;100.00;-25411.00;5116228;27;19925;-74
2022/09/18 09:55:18;;;;;;;;;;;;;;;12.28;100.00;-25411.88;5116498;27;19951;-74
2022/09/18 09:57:52;;;;;;;;;;;;;;;12.21;100.00;-25410.13;5117316;27;19916;-73
2022/09/18 10:00:19;;;;;;;;;;;;;;;12.25;100.00;-25411.13;5114801;27;19976;-75
2022/09/18 10:03:03;;;;;;;;;;;;;;;12.31;100.00;-25412.88;5116683;27;19962;-75
2022/09/18 10:05:43;;;;;;;;;;;;;;;12.38;100.00;-25414.78;5097286;27;19924;-73
2022/09/18 10:08:14;;;;;;;;;;;;;;;12.33;100.00;-25413.47;5105233;28;19985;-76
2022/09/18 10:10:44;;;;;;;;;;;;;;;12.45;100.00;-25416.84;5095919;28;19928;-75
2022/09/18 10:13:16;;;;;;;;;;;;;;;12.45;100.00;-25416.84;5105978;27;19922;-77
2022/09/18 10:15:46;;;;;;;;;;;;;;;12.55;100.00;-25419.75;5116454;27;20372;-72
2022/09/18 10:18:18;;;;;;;;;;;;;;;12.69;100.00;-25423.72;5116570;27;20303;-81
2022/09/18 10:20:44;;;;;;;;;;;;;;;12.82;100.00;-25427.38;5116353;27;19922;-75
2022/09/18 10:23:13;;;;;;;;;;;;;;;12.89;100.00;-25429.41;5115776;27;19912;-74
2022/09/18 10:25:44;;;;;;;;;;;;;;;12.90;100.00;-25429.56;5111558;27;20325;-74
2022/09/18 10:28:13;;;;;;;;;;;;;;;12.93;100.00;-25430.56;5116111;27;19921;-77
2022/09/18 10:31:11;;;;;;;;;;;;;;;13.01;100.00;-25432.78;5115471;27;19915;-75
2022/09/18 10:33:40;;;;;;;;;;;;;;;13.13;100.00;-25436.13;5059939;27;20285;-74
2022/09/18 10:36:21;;;;;;;;;;;;;;;13.24;100.00;-25439.19;5114880;27;19916;-74
2022/09/18 10:38:48;;;;;;;;;;;;;;;13.20;100.00;-25438.03;5115356;27;19916;-75
2022/09/18 10:41:20;;;;;;;;;;;;;;;13.07;100.00;-25434.38;5114739;27;19923;-74
2022/09/18 10:43:51;;;;;;;;;;;;;;;12.97;100.00;-25431.59;5115938;27;19988;-76
2022/09/18 10:46:21;;;;;;;;;;;;;;;12.82;100.00;-25427.22;5116144;27;19916;-77
2022/09/18 10:48:47;;;;;;;;;;;;;;;12.62;100.00;-25421.66;5112038;27;19923;-76
2022/09/18 10:51:15;;;;;;;;;;;;;;;12.56;100.00;-25420.06;5115356;27;20366;-81
2022/09/18 10:53:41;;;;;;;;;;;;;;;12.49;100.00;-25417.84;5115364;27;19920;-82
2022/09/18 10:56:18;;;;;;;;;;;;;;;12.36;100.00;-25414.22;5116867;27;19920;-86
2022/09/18 10:58:44;;;;;;;;;;;;;;;12.36;100.00;-25414.34;5116817;27;19916;-80
2022/09/18 11:01:10;;;;;;;;;;;;;;;12.46;100.00;-25417.13;5116287;27;20370;-79
2022/09/18 11:03:39;;;;;;;;;;;;;;;12.45;100.00;-25416.69;5110790;27;19916;-81
2022/09/18 11:06:24;;;;;;;;;;;;;;;12.34;100.00;-25413.75;5117113;27;20015;-76
2022/09/18 11:08:58;;;;;;;;;;;;;;;12.21;100.00;-25410.13;5115945;27;19922;-79
2022/09/18 11:11:36;;;;;;;;;;;;;;;12.25;100.00;-25411.13;5113504;27;19915;-83
2022/09/18 11:14:14;;;;;;;;;;;;;;;12.23;100.00;-25410.41;5116879;27;19919;-82
2022/09/18 11:16:44;;;;;;;;;;;;;;;12.26;100.00;-25411.28;5116887;27;20010;-80
2022/09/18 11:19:10;;;;;;;;;;;;;;;12.39;100.00;-25415.09;5117796;27;19916;-80
2022/09/18 11:21:44;;;;;;;;;;;;;;;12.57;100.00;-25420.19;5115513;27;19927;-84
2022/09/18 11:24:32;;;;;;;;;;;;;;;12.72;100.00;-25424.59;5094938;28;19920;-83
2022/09/18 11:26:59;;;;;;;;;;;;;;;12.63;100.00;-25421.97;5116786;27;20286;-85
2022/09/18 11:29:24;;;;;;;;;;;;;;;12.72;100.00;-25424.44;5117142;27;19923;-81
2022/09/18 11:31:55;;;;;;;;;;;;;;;12.63;100.00;-25421.97;5123640;27;19919;-82
2022/09/18 11:34:26;;;;;;;;;;;;;;;12.65;100.00;-25422.53;5129313;27;19916;-79
2022/09/18 11:36:53;;;;;;;;;;;;;;;12.68;100.00;-25423.28;5107473;28;19926;-84
2022/09/18 11:39:32;;;;;;;;;;;;;;;12.66;100.00;-25422.69;5113589;27;19926;-85
2022/09/18 11:41:58;;;;;;;;;;;;;;;12.67;100.00;-25422.97;5116262;27;19926;-84
2022/09/18 11:44:27;;;;;;;;;;;;;;;12.64;100.00;-25422.25;5116754;27;19916;-84
2022/09/18 11:46:55;;;;;;;;;;;;;;;12.67;100.00;-25422.97;5117038;27;19987;-85
2022/09/18 11:49:24;;;;;;;;;;;;;;;12.71;100.00;-25424.28;5117720;27;19922;-85
2022/09/18 11:51:55;;;;;;;;;;;;;;;12.73;100.00;-25424.72;5116974;27;19923;-83
2022/09/18 11:54:42;;;;;;;;;;;;;;;12.63;100.00;-25421.97;5116219;27;19964;-79
2022/09/18 11:57:23;;;;;;;;;;;;;;;12.74;100.00;-25425.03;5116678;27;19915;-86
2022/09/18 12:00:08;;;;;;;;;;;;;;;12.87;100.00;-25428.81;5118015;27;19912;-85
2022/09/18 12:02:53;;;;;;;;;;;;;;;12.82;100.00;-25427.38;5123737;27;19923;-85
2022/09/18 12:05:27;;;;;;;;;;;;;;;12.77;100.00;-25425.91;5116604;27;19926;-76
2022/09/18 12:08:12;;;;;;;;;;;;;;;12.77;100.00;-25425.91;5114132;27;19919;-79
2022/09/18 12:10:54;;;;;;;;;;;;;;;12.83;100.00;-25427.66;5114412;27;19976;-77
2022/09/18 12:13:29;;;;;;;;;;;;;;;13.04;100.00;-25433.66;5113458;27;19919;-75
2022/09/18 12:16:01;;;;;;;;;;;;;;;13.11;100.00;-25435.69;5114196;28;20355;-75
2022/09/18 12:18:34;;;;;;;;;;;;;;;13.14;100.00;-25436.28;5113903;27;19916;-77
2022/09/18 12:21:05;;;;;;;;;;;;;;;13.22;100.00;-25438.75;5114075;28;19918;-74
2022/09/18 12:23:31;;;;;;;;;;;;;;;13.24;100.00;-25439.34;5113080;28;20008;-74
2022/09/18 12:25:59;;;;;;;;;;;;;;;13.20;100.00;-25438.16;5114288;28;19925;-76
2022/09/18 12:28:44;;;;;;;;;;;;;;;13.28;100.00;-25440.34;5113575;27;20435;-77
2022/09/18 12:31:26;;;;;;;;;;;;;;;13.35;100.00;-25442.41;5103103;28;20451;-75
2022/09/18 12:34:10;;;;;;;;;;;;;;;13.44;100.00;-25444.91;5114437;28;20425;-77
2022/09/18 12:36:36;;;;;;;;;;;;;;;13.47;100.00;-25445.78;5113662;28;19927;-75
2022/09/18 12:39:13;;;;;;;;;;;;;;;13.39;100.00;-25443.59;5115439;28;19916;-78